sensor_id;sensor_type;location;lat;lon;timestamp;P1;durP1;ratioP1;P2;durP2;ratioP2
82372;SDS011;72000;42.828;23.382;2024-02-26T00:00:28;9.18;;;4.60;;
82372;SDS011;72000;42.828;23.382;2024-02-26T00:05:19;10.85;;;4.70;;
82372;SDS011;72000;42.828;23.382;2024-02-26T00:07:45;9.95;;;4.60;;
82372;SDS011;72000;42.828;23.382;2024-02-26T00:10:12;10.93;;;5.10;;
82372;SDS011;72000;42.828;23.382;2024-02-26T00:15:05;9.05;;;4.40;;
82372;SDS011;72000;42.828;23.382;2024-02-26T00:17:31;9.65;;;4.13;;
82372;SDS011;72000;42.828;23.382;2024-02-26T00:19:56;11.68;;;4.78;;
82372;SDS011;72000;42.828;23.382;2024-02-26T00:22:22;9.90;;;4.65;;
82372;SDS011;72000;42.828;23.382;2024-02-26T00:24:47;11.15;;;4.72;;
82372;SDS011;72000;42.828;23.382;2024-02-26T00:27:13;11.80;;;4.65;;
82372;SDS011;72000;42.828;23.382;2024-02-26T00:29:39;9.63;;;4.35;;
82372;SDS011;72000;42.828;23.382;2024-02-26T00:32:04;10.00;;;4.70;;
82372;SDS011;72000;42.828;23.382;2024-02-26T00:34:30;14.82;;;5.35;;
82372;SDS011;72000;42.828;23.382;2024-02-26T00:36:56;13.07;;;5.07;;
82372;SDS011;72000;42.828;23.382;2024-02-26T00:39:21;10.48;;;4.63;;
82372;SDS011;72000;42.828;23.382;2024-02-26T00:41:47;9.18;;;4.68;;
82372;SDS011;72000;42.828;23.382;2024-02-26T00:44:12;13.52;;;4.97;;
82372;SDS011;72000;42.828;23.382;2024-02-26T00:46:38;11.82;;;5.25;;
82372;SDS011;72000;42.828;23.382;2024-02-26T00:49:03;8.95;;;4.63;;
82372;SDS011;72000;42.828;23.382;2024-02-26T00:51:29;12.48;;;5.43;;
82372;SDS011;72000;42.828;23.382;2024-02-26T00:53:55;11.00;;;5.13;;
82372;SDS011;72000;42.828;23.382;2024-02-26T00:56:21;13.70;;;5.50;;
82372;SDS011;72000;42.828;23.382;2024-02-26T00:58:46;11.13;;;5.00;;
82372;SDS011;72000;42.828;23.382;2024-02-26T01:01:12;10.55;;;5.00;;
82372;SDS011;72000;42.828;23.382;2024-02-26T01:03:37;10.15;;;4.80;;
82372;SDS011;72000;42.828;23.382;2024-02-26T01:06:03;10.25;;;4.78;;
82372;SDS011;72000;42.828;23.382;2024-02-26T01:08:29;10.43;;;4.82;;
82372;SDS011;72000;42.828;23.382;2024-02-26T01:10:54;12.32;;;4.90;;
82372;SDS011;72000;42.828;23.382;2024-02-26T01:13:20;9.15;;;5.13;;
82372;SDS011;72000;42.828;23.382;2024-02-26T01:15:45;9.48;;;4.35;;
82372;SDS011;72000;42.828;23.382;2024-02-26T01:18:11;10.63;;;4.47;;
82372;SDS011;72000;42.828;23.382;2024-02-26T01:20:37;10.35;;;4.40;;
82372;SDS011;72000;42.828;23.382;2024-02-26T01:23:03;10.38;;;4.25;;
82372;SDS011;72000;42.828;23.382;2024-02-26T01:25:28;9.65;;;4.32;;
82372;SDS011;72000;42.828;23.382;2024-02-26T01:27:54;9.02;;;4.18;;
82372;SDS011;72000;42.828;23.382;2024-02-26T01:30:19;8.93;;;3.95;;
82372;SDS011;72000;42.828;23.382;2024-02-26T01:32:45;8.98;;;3.97;;
82372;SDS011;72000;42.828;23.382;2024-02-26T01:35:11;8.90;;;4.35;;
82372;SDS011;72000;42.828;23.382;2024-02-26T01:37:37;9.98;;;4.15;;
82372;SDS011;72000;42.828;23.382;2024-02-26T01:40:03;9.30;;;4.10;;
82372;SDS011;72000;42.828;23.382;2024-02-26T01:42:32;8.02;;;3.83;;
82372;SDS011;72000;42.828;23.382;2024-02-26T01:44:58;7.93;;;3.67;;
82372;SDS011;72000;42.828;23.382;2024-02-26T01:47:23;8.32;;;3.63;;
82372;SDS011;72000;42.828;23.382;2024-02-26T01:49:49;10.77;;;3.78;;
82372;SDS011;72000;42.828;23.382;2024-02-26T01:52:14;7.85;;;3.95;;
82372;SDS011;72000;42.828;23.382;2024-02-26T01:54:41;9.68;;;4.32;;
82372;SDS011;72000;42.828;23.382;2024-02-26T01:57:08;8.80;;;3.85;;
82372;SDS011;72000;42.828;23.382;2024-02-26T01:59:33;8.23;;;3.92;;
82372;SDS011;72000;42.828;23.382;2024-02-26T02:02:00;8.05;;;3.70;;
82372;SDS011;72000;42.828;23.382;2024-02-26T02:04:27;8.88;;;4.10;;
82372;SDS011;72000;42.828;23.382;2024-02-26T02:06:53;7.57;;;3.50;;
82372;SDS011;72000;42.828;23.382;2024-02-26T02:09:19;10.35;;;3.92;;
82372;SDS011;72000;42.828;23.382;2024-02-26T02:11:44;8.27;;;3.83;;
82372;SDS011;72000;42.828;23.382;2024-02-26T02:14:11;9.60;;;4.00;;
82372;SDS011;72000;42.828;23.382;2024-02-26T02:16:37;7.60;;;3.90;;
82372;SDS011;72000;42.828;23.382;2024-02-26T02:19:02;9.43;;;3.63;;
82372;SDS011;72000;42.828;23.382;2024-02-26T02:21:28;8.98;;;3.47;;
82372;SDS011;72000;42.828;23.382;2024-02-26T02:23:53;8.18;;;3.65;;
82372;SDS011;72000;42.828;23.382;2024-02-26T02:26:19;7.95;;;3.70;;
82372;SDS011;72000;42.828;23.382;2024-02-26T02:28:45;8.05;;;4.00;;
82372;SDS011;72000;42.828;23.382;2024-02-26T02:31:11;10.30;;;4.50;;
82372;SDS011;72000;42.828;23.382;2024-02-26T02:33:37;9.45;;;4.30;;
82372;SDS011;72000;42.828;23.382;2024-02-26T02:36:03;8.93;;;4.10;;
82372;SDS011;72000;42.828;23.382;2024-02-26T02:38:29;9.27;;;4.03;;
82372;SDS011;72000;42.828;23.382;2024-02-26T02:40:55;8.63;;;3.53;;
82372;SDS011;72000;42.828;23.382;2024-02-26T02:43:21;11.15;;;3.80;;
82372;SDS011;72000;42.828;23.382;2024-02-26T02:45:46;7.63;;;3.58;;
82372;SDS011;72000;42.828;23.382;2024-02-26T02:48:12;8.82;;;3.90;;
82372;SDS011;72000;42.828;23.382;2024-02-26T02:50:37;7.93;;;3.47;;
82372;SDS011;72000;42.828;23.382;2024-02-26T02:53:03;8.00;;;3.80;;
82372;SDS011;72000;42.828;23.382;2024-02-26T02:55:29;7.95;;;3.60;;
82372;SDS011;72000;42.828;23.382;2024-02-26T02:57:54;7.35;;;3.78;;
82372;SDS011;72000;42.828;23.382;2024-02-26T03:00:20;13.13;;;4.10;;
82372;SDS011;72000;42.828;23.382;2024-02-26T03:02:48;7.70;;;3.60;;
82372;SDS011;72000;42.828;23.382;2024-02-26T03:05:14;7.45;;;3.58;;
82372;SDS011;72000;42.828;23.382;2024-02-26T03:07:40;7.70;;;3.55;;
82372;SDS011;72000;42.828;23.382;2024-02-26T03:10:06;10.02;;;3.47;;
82372;SDS011;72000;42.828;23.382;2024-02-26T03:12:32;11.15;;;4.13;;
82372;SDS011;72000;42.828;23.382;2024-02-26T03:14:58;10.02;;;4.25;;
82372;SDS011;72000;42.828;23.382;2024-02-26T03:17:26;8.93;;;3.65;;
82372;SDS011;72000;42.828;23.382;2024-02-26T03:19:52;9.95;;;4.15;;
82372;SDS011;72000;42.828;23.382;2024-02-26T03:22:19;8.75;;;4.15;;
82372;SDS011;72000;42.828;23.382;2024-02-26T03:27:11;11.13;;;4.07;;
82372;SDS011;72000;42.828;23.382;2024-02-26T03:29:39;8.60;;;3.83;;
82372;SDS011;72000;42.828;23.382;2024-02-26T03:32:05;8.52;;;3.58;;
82372;SDS011;72000;42.828;23.382;2024-02-26T03:34:31;8.80;;;3.75;;
82372;SDS011;72000;42.828;23.382;2024-02-26T03:36:59;8.05;;;3.63;;
82372;SDS011;72000;42.828;23.382;2024-02-26T03:39:25;8.10;;;3.63;;
82372;SDS011;72000;42.828;23.382;2024-02-26T03:41:51;8.50;;;3.58;;
82372;SDS011;72000;42.828;23.382;2024-02-26T03:44:17;9.55;;;3.90;;
82372;SDS011;72000;42.828;23.382;2024-02-26T03:46:42;7.70;;;3.72;;
82372;SDS011;72000;42.828;23.382;2024-02-26T03:49:08;8.20;;;3.65;;
82372;SDS011;72000;42.828;23.382;2024-02-26T03:51:34;8.13;;;3.70;;
82372;SDS011;72000;42.828;23.382;2024-02-26T03:54:00;8.32;;;3.53;;
82372;SDS011;72000;42.828;23.382;2024-02-26T03:56:26;8.70;;;3.67;;
82372;SDS011;72000;42.828;23.382;2024-02-26T03:58:52;7.00;;;3.30;;
82372;SDS011;72000;42.828;23.382;2024-02-26T04:01:17;7.47;;;3.30;;
82372;SDS011;72000;42.828;23.382;2024-02-26T04:03:43;6.20;;;3.38;;
82372;SDS011;72000;42.828;23.382;2024-02-26T04:06:09;8.35;;;3.42;;
82372;SDS011;72000;42.828;23.382;2024-02-26T04:08:35;8.35;;;3.45;;
82372;SDS011;72000;42.828;23.382;2024-02-26T04:11:01;8.60;;;3.47;;
82372;SDS011;72000;42.828;23.382;2024-02-26T04:13:32;6.25;;;3.08;;
82372;SDS011;72000;42.828;23.382;2024-02-26T04:15:58;7.50;;;3.10;;
82372;SDS011;72000;42.828;23.382;2024-02-26T04:18:23;8.48;;;3.25;;
82372;SDS011;72000;42.828;23.382;2024-02-26T04:20:49;7.32;;;3.22;;
82372;SDS011;72000;42.828;23.382;2024-02-26T04:23:16;7.57;;;3.53;;
82372;SDS011;72000;42.828;23.382;2024-02-26T04:25:42;8.60;;;3.42;;
82372;SDS011;72000;42.828;23.382;2024-02-26T04:28:07;9.60;;;3.22;;
82372;SDS011;72000;42.828;23.382;2024-02-26T04:30:33;5.40;;;2.70;;
82372;SDS011;72000;42.828;23.382;2024-02-26T04:32:58;6.88;;;2.80;;
82372;SDS011;72000;42.828;23.382;2024-02-26T04:35:24;8.40;;;3.20;;
82372;SDS011;72000;42.828;23.382;2024-02-26T04:37:49;7.60;;;2.97;;
82372;SDS011;72000;42.828;23.382;2024-02-26T04:40:15;7.65;;;3.30;;
82372;SDS011;72000;42.828;23.382;2024-02-26T04:42:40;7.38;;;3.10;;
82372;SDS011;72000;42.828;23.382;2024-02-26T04:45:06;7.75;;;3.00;;
82372;SDS011;72000;42.828;23.382;2024-02-26T04:47:33;7.53;;;3.08;;
82372;SDS011;72000;42.828;23.382;2024-02-26T04:49:59;6.00;;;2.92;;
82372;SDS011;72000;42.828;23.382;2024-02-26T04:52:25;5.90;;;2.85;;
82372;SDS011;72000;42.828;23.382;2024-02-26T04:54:50;6.35;;;3.10;;
82372;SDS011;72000;42.828;23.382;2024-02-26T04:57:16;7.05;;;3.00;;
82372;SDS011;72000;42.828;23.382;2024-02-26T04:59:43;7.22;;;2.70;;
82372;SDS011;72000;42.828;23.382;2024-02-26T05:02:11;5.85;;;2.53;;
82372;SDS011;72000;42.828;23.382;2024-02-26T05:04:37;6.55;;;2.42;;
82372;SDS011;72000;42.828;23.382;2024-02-26T05:07:02;5.22;;;2.33;;
82372;SDS011;72000;42.828;23.382;2024-02-26T05:09:28;5.10;;;2.58;;
82372;SDS011;72000;42.828;23.382;2024-02-26T05:11:54;5.55;;;2.15;;
82372;SDS011;72000;42.828;23.382;2024-02-26T05:14:19;5.65;;;2.38;;
82372;SDS011;72000;42.828;23.382;2024-02-26T05:16:45;8.65;;;3.25;;
82372;SDS011;72000;42.828;23.382;2024-02-26T05:19:11;11.63;;;5.03;;
82372;SDS011;72000;42.828;23.382;2024-02-26T05:21:36;12.73;;;5.63;;
82372;SDS011;72000;42.828;23.382;2024-02-26T05:24:02;14.52;;;6.22;;
82372;SDS011;72000;42.828;23.382;2024-02-26T05:26:27;12.85;;;5.43;;
82372;SDS011;72000;42.828;23.382;2024-02-26T05:28:53;11.23;;;5.45;;
82372;SDS011;72000;42.828;23.382;2024-02-26T05:31:24;9.38;;;3.90;;
82372;SDS011;72000;42.828;23.382;2024-02-26T05:33:50;8.27;;;2.90;;
82372;SDS011;72000;42.828;23.382;2024-02-26T05:36:19;9.30;;;3.85;;
82372;SDS011;72000;42.828;23.382;2024-02-26T05:38:48;7.55;;;3.42;;
82372;SDS011;72000;42.828;23.382;2024-02-26T05:41:15;8.43;;;3.13;;
82372;SDS011;72000;42.828;23.382;2024-02-26T05:43:41;9.00;;;4.05;;
82372;SDS011;72000;42.828;23.382;2024-02-26T05:46:06;6.97;;;2.78;;
82372;SDS011;72000;42.828;23.382;2024-02-26T05:48:31;7.75;;;3.20;;
82372;SDS011;72000;42.828;23.382;2024-02-26T05:50:57;9.65;;;3.50;;
82372;SDS011;72000;42.828;23.382;2024-02-26T05:53:22;8.70;;;3.65;;
82372;SDS011;72000;42.828;23.382;2024-02-26T05:55:48;6.93;;;3.22;;
82372;SDS011;72000;42.828;23.382;2024-02-26T05:58:14;9.00;;;3.70;;
82372;SDS011;72000;42.828;23.382;2024-02-26T06:00:39;9.10;;;4.03;;
82372;SDS011;72000;42.828;23.382;2024-02-26T06:03:04;8.57;;;4.05;;
82372;SDS011;72000;42.828;23.382;2024-02-26T06:05:30;10.32;;;4.50;;
82372;SDS011;72000;42.828;23.382;2024-02-26T06:07:56;10.82;;;4.68;;
82372;SDS011;72000;42.828;23.382;2024-02-26T06:10:21;10.40;;;4.53;;
82372;SDS011;72000;42.828;23.382;2024-02-26T06:12:47;10.35;;;5.03;;
82372;SDS011;72000;42.828;23.382;2024-02-26T06:15:13;14.75;;;5.13;;
82372;SDS011;72000;42.828;23.382;2024-02-26T06:17:38;10.30;;;4.90;;
82372;SDS011;72000;42.828;23.382;2024-02-26T06:20:04;12.98;;;5.47;;
82372;SDS011;72000;42.828;23.382;2024-02-26T06:22:31;11.10;;;5.05;;
82372;SDS011;72000;42.828;23.382;2024-02-26T06:24:57;11.00;;;5.00;;
82372;SDS011;72000;42.828;23.382;2024-02-26T06:27:23;10.32;;;4.88;;
82372;SDS011;72000;42.828;23.382;2024-02-26T06:29:49;13.05;;;6.45;;
82372;SDS011;72000;42.828;23.382;2024-02-26T06:32:14;13.20;;;5.60;;
82372;SDS011;72000;42.828;23.382;2024-02-26T06:34:40;14.35;;;6.82;;
82372;SDS011;72000;42.828;23.382;2024-02-26T06:37:07;15.55;;;6.78;;
82372;SDS011;72000;42.828;23.382;2024-02-26T06:39:33;14.70;;;6.60;;
82372;SDS011;72000;42.828;23.382;2024-02-26T06:41:59;15.23;;;6.85;;
82372;SDS011;72000;42.828;23.382;2024-02-26T06:44:27;14.82;;;6.82;;
82372;SDS011;72000;42.828;23.382;2024-02-26T06:47:02;14.13;;;6.72;;
82372;SDS011;72000;42.828;23.382;2024-02-26T06:49:28;13.82;;;6.80;;
82372;SDS011;72000;42.828;23.382;2024-02-26T06:54:19;14.97;;;6.53;;
82372;SDS011;72000;42.828;23.382;2024-02-26T06:56:45;13.48;;;6.63;;
82372;SDS011;72000;42.828;23.382;2024-02-26T06:59:11;18.05;;;6.97;;
82372;SDS011;72000;42.828;23.382;2024-02-26T07:01:36;15.65;;;6.80;;
82372;SDS011;72000;42.828;23.382;2024-02-26T07:04:02;16.38;;;7.22;;
82372;SDS011;72000;42.828;23.382;2024-02-26T07:06:27;15.63;;;7.50;;
82372;SDS011;72000;42.828;23.382;2024-02-26T07:08:53;12.45;;;5.80;;
82372;SDS011;72000;42.828;23.382;2024-02-26T07:11:19;14.68;;;7.00;;
82372;SDS011;72000;42.828;23.382;2024-02-26T07:13:45;12.98;;;6.32;;
82372;SDS011;72000;42.828;23.382;2024-02-26T07:16:11;11.20;;;5.40;;
82372;SDS011;72000;42.828;23.382;2024-02-26T07:18:38;12.73;;;5.70;;
82372;SDS011;72000;42.828;23.382;2024-02-26T07:21:04;12.18;;;5.50;;
82372;SDS011;72000;42.828;23.382;2024-02-26T07:23:31;13.43;;;6.05;;
82372;SDS011;72000;42.828;23.382;2024-02-26T07:25:56;12.52;;;5.45;;
82372;SDS011;72000;42.828;23.382;2024-02-26T07:28:22;10.23;;;4.85;;
82372;SDS011;72000;42.828;23.382;2024-02-26T07:30:47;10.60;;;4.78;;
82372;SDS011;72000;42.828;23.382;2024-02-26T07:33:13;13.80;;;6.03;;
82372;SDS011;72000;42.828;23.382;2024-02-26T07:35:38;10.05;;;4.82;;
82372;SDS011;72000;42.828;23.382;2024-02-26T07:38:04;10.18;;;4.40;;
82372;SDS011;72000;42.828;23.382;2024-02-26T07:40:30;10.93;;;4.43;;
82372;SDS011;72000;42.828;23.382;2024-02-26T07:42:55;9.00;;;4.13;;
82372;SDS011;72000;42.828;23.382;2024-02-26T07:45:21;8.65;;;3.67;;
82372;SDS011;72000;42.828;23.382;2024-02-26T07:47:47;9.15;;;3.85;;
82372;SDS011;72000;42.828;23.382;2024-02-26T07:50:13;7.65;;;3.80;;
82372;SDS011;72000;42.828;23.382;2024-02-26T07:52:38;7.20;;;3.63;;
82372;SDS011;72000;42.828;23.382;2024-02-26T07:55:05;9.57;;;4.63;;
82372;SDS011;72000;42.828;23.382;2024-02-26T07:57:32;8.70;;;3.65;;
82372;SDS011;72000;42.828;23.382;2024-02-26T07:59:58;8.90;;;3.63;;
82372;SDS011;72000;42.828;23.382;2024-02-26T08:02:24;8.23;;;3.70;;
82372;SDS011;72000;42.828;23.382;2024-02-26T08:04:50;8.00;;;3.35;;
82372;SDS011;72000;42.828;23.382;2024-02-26T08:07:15;8.70;;;3.40;;
82372;SDS011;72000;42.828;23.382;2024-02-26T08:09:41;7.63;;;3.58;;
82372;SDS011;72000;42.828;23.382;2024-02-26T08:12:06;7.85;;;3.47;;
82372;SDS011;72000;42.828;23.382;2024-02-26T08:14:32;9.52;;;3.50;;
82372;SDS011;72000;42.828;23.382;2024-02-26T08:16:58;8.25;;;3.30;;
82372;SDS011;72000;42.828;23.382;2024-02-26T08:19:24;7.70;;;3.25;;
82372;SDS011;72000;42.828;23.382;2024-02-26T08:21:50;6.72;;;3.10;;
82372;SDS011;72000;42.828;23.382;2024-02-26T08:24:15;9.15;;;3.83;;
82372;SDS011;72000;42.828;23.382;2024-02-26T08:26:41;10.23;;;3.72;;
82372;SDS011;72000;42.828;23.382;2024-02-26T08:29:06;8.43;;;3.33;;
82372;SDS011;72000;42.828;23.382;2024-02-26T08:31:31;7.68;;;3.55;;
82372;SDS011;72000;42.828;23.382;2024-02-26T08:33:57;8.52;;;3.80;;
82372;SDS011;72000;42.828;23.382;2024-02-26T08:36:24;7.03;;;3.60;;
82372;SDS011;72000;42.828;23.382;2024-02-26T08:38:49;8.52;;;3.65;;
82372;SDS011;72000;42.828;23.382;2024-02-26T08:41:15;9.73;;;4.03;;
82372;SDS011;72000;42.828;23.382;2024-02-26T08:43:40;9.80;;;3.72;;
82372;SDS011;72000;42.828;23.382;2024-02-26T08:46:08;9.13;;;3.70;;
82372;SDS011;72000;42.828;23.382;2024-02-26T08:48:35;8.13;;;3.60;;
82372;SDS011;72000;42.828;23.382;2024-02-26T08:51:04;11.30;;;3.92;;
82372;SDS011;72000;42.828;23.382;2024-02-26T08:53:32;7.18;;;3.45;;
82372;SDS011;72000;42.828;23.382;2024-02-26T08:55:59;7.45;;;3.83;;
82372;SDS011;72000;42.828;23.382;2024-02-26T08:58:25;10.48;;;4.38;;
82372;SDS011;72000;42.828;23.382;2024-02-26T09:00:52;7.30;;;3.83;;
82372;SDS011;72000;42.828;23.382;2024-02-26T09:03:18;7.18;;;3.85;;
82372;SDS011;72000;42.828;23.382;2024-02-26T09:05:43;10.40;;;4.25;;
82372;SDS011;72000;42.828;23.382;2024-02-26T09:08:09;9.07;;;3.78;;
82372;SDS011;72000;42.828;23.382;2024-02-26T09:10:34;9.98;;;3.90;;
82372;SDS011;72000;42.828;23.382;2024-02-26T09:13:00;8.88;;;4.10;;
82372;SDS011;72000;42.828;23.382;2024-02-26T09:15:25;7.78;;;3.88;;
82372;SDS011;72000;42.828;23.382;2024-02-26T09:17:51;9.68;;;4.30;;
82372;SDS011;72000;42.828;23.382;2024-02-26T09:20:17;7.90;;;3.95;;
82372;SDS011;72000;42.828;23.382;2024-02-26T09:22:46;9.75;;;4.22;;
82372;SDS011;72000;42.828;23.382;2024-02-26T09:25:13;9.05;;;4.30;;
82372;SDS011;72000;42.828;23.382;2024-02-26T09:27:41;9.57;;;4.22;;
82372;SDS011;72000;42.828;23.382;2024-02-26T09:30:08;8.65;;;4.40;;
82372;SDS011;72000;42.828;23.382;2024-02-26T09:32:35;11.43;;;4.82;;
82372;SDS011;72000;42.828;23.382;2024-02-26T09:35:01;9.15;;;4.80;;
82372;SDS011;72000;42.828;23.382;2024-02-26T09:37:26;10.80;;;4.97;;
82372;SDS011;72000;42.828;23.382;2024-02-26T09:39:52;9.60;;;4.60;;
82372;SDS011;72000;42.828;23.382;2024-02-26T09:42:18;14.77;;;5.03;;
82372;SDS011;72000;42.828;23.382;2024-02-26T09:44:44;10.90;;;4.88;;
82372;SDS011;72000;42.828;23.382;2024-02-26T09:47:10;10.23;;;4.70;;
82372;SDS011;72000;42.828;23.382;2024-02-26T09:49:38;11.63;;;5.20;;
82372;SDS011;72000;42.828;23.382;2024-02-26T09:52:07;9.18;;;3.80;;
82372;SDS011;72000;42.828;23.382;2024-02-26T09:54:34;8.52;;;3.90;;
82372;SDS011;72000;42.828;23.382;2024-02-26T09:57:00;11.15;;;5.20;;
82372;SDS011;72000;42.828;23.382;2024-02-26T09:59:40;10.23;;;4.93;;
82372;SDS011;72000;42.828;23.382;2024-02-26T10:02:13;13.35;;;5.25;;
82372;SDS011;72000;42.828;23.382;2024-02-26T10:04:39;9.82;;;4.90;;
82372;SDS011;72000;42.828;23.382;2024-02-26T10:09:35;9.85;;;4.60;;
82372;SDS011;72000;42.828;23.382;2024-02-26T10:12:01;13.38;;;4.35;;
82372;SDS011;72000;42.828;23.382;2024-02-26T10:14:27;7.72;;;4.20;;
82372;SDS011;72000;42.828;23.382;2024-02-26T10:16:52;9.30;;;3.92;;
82372;SDS011;72000;42.828;23.382;2024-02-26T10:19:25;8.65;;;4.43;;
82372;SDS011;72000;42.828;23.382;2024-02-26T10:22:01;7.13;;;2.55;;
82372;SDS011;72000;42.828;23.382;2024-02-26T10:24:27;5.30;;;2.30;;
82372;SDS011;72000;42.828;23.382;2024-02-26T10:26:54;6.00;;;2.60;;
82372;SDS011;72000;42.828;23.382;2024-02-26T10:31:45;5.65;;;2.42;;
82372;SDS011;72000;42.828;23.382;2024-02-26T10:34:11;5.78;;;2.30;;
82372;SDS011;72000;42.828;23.382;2024-02-26T10:39:06;5.32;;;2.30;;
82372;SDS011;72000;42.828;23.382;2024-02-26T10:41:32;6.93;;;2.45;;
82372;SDS011;72000;42.828;23.382;2024-02-26T10:43:58;6.03;;;2.50;;
82372;SDS011;72000;42.828;23.382;2024-02-26T10:46:25;5.00;;;2.00;;
82372;SDS011;72000;42.828;23.382;2024-02-26T10:48:51;5.10;;;2.40;;
82372;SDS011;72000;42.828;23.382;2024-02-26T10:51:20;7.85;;;2.30;;
82372;SDS011;72000;42.828;23.382;2024-02-26T10:53:54;8.00;;;2.42;;
82372;SDS011;72000;42.828;23.382;2024-02-26T10:56:25;5.30;;;2.10;;
82372;SDS011;72000;42.828;23.382;2024-02-26T10:58:55;6.20;;;2.50;;
82372;SDS011;72000;42.828;23.382;2024-02-26T11:01:21;5.45;;;2.20;;
82372;SDS011;72000;42.828;23.382;2024-02-26T11:03:50;6.38;;;2.28;;
82372;SDS011;72000;42.828;23.382;2024-02-26T11:06:16;6.50;;;2.58;;
82372;SDS011;72000;42.828;23.382;2024-02-26T11:08:43;6.25;;;2.63;;
82372;SDS011;72000;42.828;23.382;2024-02-26T11:11:09;5.93;;;2.47;;
82372;SDS011;72000;42.828;23.382;2024-02-26T11:13:34;5.57;;;2.55;;
82372;SDS011;72000;42.828;23.382;2024-02-26T11:16:04;5.32;;;2.33;;
82372;SDS011;72000;42.828;23.382;2024-02-26T11:18:30;5.03;;;2.50;;
82372;SDS011;72000;42.828;23.382;2024-02-26T11:20:56;6.75;;;2.70;;
82372;SDS011;72000;42.828;23.382;2024-02-26T11:25:51;7.30;;;2.50;;
82372;SDS011;72000;42.828;23.382;2024-02-26T11:28:17;6.22;;;2.63;;
82372;SDS011;72000;42.828;23.382;2024-02-26T11:30:45;5.07;;;2.58;;
82372;SDS011;72000;42.828;23.382;2024-02-26T11:33:12;6.93;;;3.03;;
82372;SDS011;72000;42.828;23.382;2024-02-26T11:35:38;7.47;;;3.25;;
82372;SDS011;72000;42.828;23.382;2024-02-26T11:38:04;5.38;;;2.67;;
82372;SDS011;72000;42.828;23.382;2024-02-26T11:40:32;7.38;;;2.85;;
82372;SDS011;72000;42.828;23.382;2024-02-26T11:42:59;5.88;;;3.00;;
82372;SDS011;72000;42.828;23.382;2024-02-26T11:48:15;5.63;;;2.50;;
82372;SDS011;72000;42.828;23.382;2024-02-26T11:50:46;11.90;;;3.05;;
82372;SDS011;72000;42.828;23.382;2024-02-26T11:53:20;6.43;;;3.08;;
82372;SDS011;72000;42.828;23.382;2024-02-26T11:58:46;7.38;;;2.92;;
82372;SDS011;72000;42.828;23.382;2024-02-26T12:04:02;4.93;;;2.58;;
82372;SDS011;72000;42.828;23.382;2024-02-26T12:06:29;12.77;;;3.00;;
82372;SDS011;72000;42.828;23.382;2024-02-26T12:08:55;6.25;;;2.20;;
82372;SDS011;72000;42.828;23.382;2024-02-26T12:11:21;5.05;;;2.50;;
82372;SDS011;72000;42.828;23.382;2024-02-26T12:13:47;6.85;;;2.58;;
82372;SDS011;72000;42.828;23.382;2024-02-26T12:19:02;5.40;;;2.53;;
82372;SDS011;72000;42.828;23.382;2024-02-26T12:21:29;5.75;;;2.50;;
82372;SDS011;72000;42.828;23.382;2024-02-26T12:23:55;6.22;;;2.47;;
82372;SDS011;72000;42.828;23.382;2024-02-26T12:26:20;4.90;;;2.38;;
82372;SDS011;72000;42.828;23.382;2024-02-26T12:28:46;6.53;;;2.42;;
82372;SDS011;72000;42.828;23.382;2024-02-26T12:33:38;7.80;;;2.67;;
82372;SDS011;72000;42.828;23.382;2024-02-26T12:36:04;6.60;;;2.40;;
82372;SDS011;72000;42.828;23.382;2024-02-26T12:38:29;6.57;;;2.50;;
82372;SDS011;72000;42.828;23.382;2024-02-26T12:40:55;6.63;;;2.53;;
82372;SDS011;72000;42.828;23.382;2024-02-26T12:43:21;7.10;;;2.40;;
82372;SDS011;72000;42.828;23.382;2024-02-26T12:45:46;6.85;;;2.30;;
82372;SDS011;72000;42.828;23.382;2024-02-26T12:48:12;5.70;;;2.30;;
82372;SDS011;72000;42.828;23.382;2024-02-26T12:50:38;6.55;;;2.28;;
82372;SDS011;72000;42.828;23.382;2024-02-26T12:53:04;5.50;;;2.15;;
82372;SDS011;72000;42.828;23.382;2024-02-26T12:55:30;5.97;;;2.47;;
82372;SDS011;72000;42.828;23.382;2024-02-26T12:57:59;5.70;;;2.30;;
82372;SDS011;72000;42.828;23.382;2024-02-26T13:00:25;6.18;;;2.17;;
82372;SDS011;72000;42.828;23.382;2024-02-26T13:02:56;4.78;;;2.20;;
82372;SDS011;72000;42.828;23.382;2024-02-26T13:05:24;7.80;;;2.40;;
82372;SDS011;72000;42.828;23.382;2024-02-26T13:07:50;5.13;;;2.08;;
82372;SDS011;72000;42.828;23.382;2024-02-26T13:10:18;5.20;;;1.92;;
82372;SDS011;72000;42.828;23.382;2024-02-26T13:12:45;5.55;;;2.00;;
82372;SDS011;72000;42.828;23.382;2024-02-26T13:15:18;4.40;;;1.85;;
82372;SDS011;72000;42.828;23.382;2024-02-26T13:17:45;5.07;;;2.10;;
82372;SDS011;72000;42.828;23.382;2024-02-26T13:20:11;4.95;;;1.65;;
82372;SDS011;72000;42.828;23.382;2024-02-26T13:22:38;5.32;;;2.30;;
82372;SDS011;72000;42.828;23.382;2024-02-26T13:25:04;6.00;;;2.20;;
82372;SDS011;72000;42.828;23.382;2024-02-26T13:27:32;6.45;;;1.85;;
82372;SDS011;72000;42.828;23.382;2024-02-26T13:30:04;4.35;;;1.80;;
82372;SDS011;72000;42.828;23.382;2024-02-26T13:32:35;4.95;;;2.00;;
82372;SDS011;72000;42.828;23.382;2024-02-26T13:35:05;10.02;;;3.25;;
82372;SDS011;72000;42.828;23.382;2024-02-26T13:37:32;4.88;;;1.80;;
82372;SDS011;72000;42.828;23.382;2024-02-26T13:39:57;5.07;;;2.20;;
82372;SDS011;72000;42.828;23.382;2024-02-26T13:42:23;4.80;;;1.90;;
82372;SDS011;72000;42.828;23.382;2024-02-26T13:44:48;4.22;;;1.90;;
82372;SDS011;72000;42.828;23.382;2024-02-26T13:47:14;4.38;;;1.85;;
82372;SDS011;72000;42.828;23.382;2024-02-26T13:49:39;7.00;;;1.90;;
82372;SDS011;72000;42.828;23.382;2024-02-26T13:52:05;4.82;;;1.90;;
82372;SDS011;72000;42.828;23.382;2024-02-26T13:54:31;4.53;;;2.00;;
82372;SDS011;72000;42.828;23.382;2024-02-26T13:56:56;6.10;;;1.90;;
82372;SDS011;72000;42.828;23.382;2024-02-26T13:59:22;4.25;;;1.90;;
82372;SDS011;72000;42.828;23.382;2024-02-26T14:01:47;5.88;;;1.92;;
82372;SDS011;72000;42.828;23.382;2024-02-26T14:04:12;4.75;;;2.10;;
82372;SDS011;72000;42.828;23.382;2024-02-26T14:06:38;4.75;;;2.13;;
82372;SDS011;72000;42.828;23.382;2024-02-26T14:09:04;5.13;;;1.90;;
82372;SDS011;72000;42.828;23.382;2024-02-26T14:11:30;4.38;;;2.00;;
82372;SDS011;72000;42.828;23.382;2024-02-26T14:13:56;5.78;;;2.00;;
82372;SDS011;72000;42.828;23.382;2024-02-26T14:16:21;5.13;;;2.33;;
82372;SDS011;72000;42.828;23.382;2024-02-26T14:18:47;5.55;;;2.20;;
82372;SDS011;72000;42.828;23.382;2024-02-26T14:21:13;5.25;;;2.17;;
82372;SDS011;72000;42.828;23.382;2024-02-26T14:23:38;6.68;;;2.20;;
82372;SDS011;72000;42.828;23.382;2024-02-26T14:26:04;8.23;;;2.10;;
82372;SDS011;72000;42.828;23.382;2024-02-26T14:28:30;5.13;;;2.10;;
82372;SDS011;72000;42.828;23.382;2024-02-26T14:30:57;7.50;;;2.38;;
82372;SDS011;72000;42.828;23.382;2024-02-26T14:33:22;6.55;;;2.13;;
82372;SDS011;72000;42.828;23.382;2024-02-26T14:35:51;5.95;;;2.33;;
82372;SDS011;72000;42.828;23.382;2024-02-26T14:38:16;5.32;;;1.90;;
82372;SDS011;72000;42.828;23.382;2024-02-26T14:40:42;5.88;;;2.20;;
82372;SDS011;72000;42.828;23.382;2024-02-26T14:43:07;4.88;;;1.90;;
82372;SDS011;72000;42.828;23.382;2024-02-26T14:45:35;5.65;;;2.10;;
82372;SDS011;72000;42.828;23.382;2024-02-26T14:48:00;8.88;;;2.10;;
82372;SDS011;72000;42.828;23.382;2024-02-26T14:50:26;5.90;;;2.25;;
82372;SDS011;72000;42.828;23.382;2024-02-26T14:52:51;5.55;;;1.95;;
82372;SDS011;72000;42.828;23.382;2024-02-26T14:55:17;5.45;;;2.20;;
82372;SDS011;72000;42.828;23.382;2024-02-26T14:57:43;7.03;;;1.90;;